Time;durP1;ratioP1;P1;durP2;ratioP2;P2;SDS_P1;SDS_P2;PMS_P1;PMS_P2;Temp;Humidity;BMP_temperature;BMP_pressure;BME280_temperature;BME280_humidity;BME280_pressure;Samples;Min_cycle;Max_cycle;Signal;HPM_P1;HPM_P2
2022/04/27 00:00:59;;;;;;;4.73;2.90;;;8.80;1.00;;;;;;5073414;28;20177;-81
2022/04/27 00:03:24;;;;;;;4.70;2.73;;;8.80;1.00;;;;;;5055552;28;20178;-85
2022/04/27 00:05:50;;;;;;;7.10;2.77;;;8.80;1.00;;;;;;5055491;28;20210;-82
2022/04/27 00:08:15;;;;;;;5.87;2.90;;;8.90;1.00;;;;;;5055414;28;20167;-82
2022/04/27 00:10:41;;;;;;;5.73;2.53;;;8.90;1.00;;;;;;5073294;28;20218;-83
2022/04/27 00:13:06;;;;;;;8.33;3.30;;;8.90;1.00;;;;;;5072845;28;20177;-82
2022/04/27 00:15:32;;;;;;;3.97;2.47;;;8.90;1.00;;;;;;5055193;28;20300;-83
2022/04/27 00:18:00;;;;;;;4.47;3.10;;;8.90;1.00;;;;;;5072873;28;20249;-83
2022/04/27 00:20:25;;;;;;;5.53;2.30;;;8.90;1.00;;;;;;5073090;28;20175;-82
2022/04/27 00:22:51;;;;;;;7.47;2.60;;;8.90;1.00;;;;;;5073014;28;20420;-83
2022/04/27 00:25:16;;;;;;;8.47;3.00;;;8.80;1.00;;;;;;5073058;28;20246;-83
2022/04/27 00:27:42;;;;;;;5.97;3.20;;;8.70;1.00;;;;;;5072783;28;20178;-83
2022/04/27 00:30:08;;;;;;;6.73;3.20;;;8.70;1.00;;;;;;5073186;28;20174;-83
2022/04/27 00:32:34;;;;;;;8.80;3.03;;;8.70;1.00;;;;;;5073086;28;20231;-83
2022/04/27 00:35:05;;;;;;;8.33;2.27;;;8.60;1.00;;;;;;5072999;28;20936;-83
2022/04/27 00:37:31;;;;;;;4.93;2.50;;;8.60;1.00;;;;;;5073040;28;20756;-83
2022/04/27 00:39:58;;;;;;;5.97;2.23;;;8.50;1.00;;;;;;5072964;28;20917;-83
2022/04/27 00:42:24;;;;;;;4.97;2.73;;;8.50;1.00;;;;;;5072608;28;20198;-82
2022/04/27 00:44:50;;;;;;;9.13;2.37;;;8.50;1.00;;;;;;5072830;28;20456;-82
2022/04/27 00:47:17;;;;;;;6.70;3.37;;;8.40;1.00;;;;;;5072884;28;20194;-82
2022/04/27 00:49:51;;;;;;;5.40;2.80;;;8.40;1.00;;;;;;5072846;28;20171;-82
2022/04/27 00:52:18;;;;;;;13.63;3.10;;;8.30;1.00;;;;;;5072806;28;20427;-82
2022/04/27 00:54:47;;;;;;;4.33;3.10;;;8.40;1.00;;;;;;5054777;28;20504;-83
2022/04/27 00:57:13;;;;;;;6.37;2.70;;;8.40;1.00;;;;;;5072431;28;20776;-83
2022/04/27 00:59:39;;;;;;;6.67;3.13;;;8.40;1.00;;;;;;5072842;28;20424;-83
2022/04/27 01:02:05;;;;;;;5.70;3.40;;;8.40;1.00;;;;;;5054738;28;20602;-82
2022/04/27 01:04:35;;;;;;;5.83;2.37;;;8.30;1.00;;;;;;5072619;28;20909;-83
2022/04/27 01:07:01;;;;;;;5.10;2.73;;;8.30;1.00;;;;;;5072596;28;20408;-83
2022/04/27 01:09:29;;;;;;;6.83;3.87;;;8.20;1.00;;;;;;5054572;28;20436;-82
2022/04/27 01:11:56;;;;;;;5.97;3.00;;;8.20;1.00;;;;;;5072392;28;20478;-82
2022/04/27 01:14:22;;;;;;;4.80;3.13;;;8.20;1.00;;;;;;5072484;28;20417;-82
2022/04/27 01:16:52;;;;;;;9.80;3.27;;;8.10;1.00;;;;;;5054346;28;20603;-82
2022/04/27 01:19:18;;;;;;;6.47;3.80;;;8.00;1.00;;;;;;5072578;28;20456;-82
2022/04/27 01:21:44;;;;;;;4.77;2.63;;;8.00;1.00;;;;;;5072568;28;20417;-82
2022/04/27 01:24:10;;;;;;;4.53;3.30;;;8.00;1.00;;;;;;5081421;28;20421;-81
2022/04/27 01:26:37;;;;;;;4.90;3.20;;;7.90;14.80;;;;;;5054280;28;20179;-82
2022/04/27 01:29:03;;;;;;;6.10;4.10;;;7.90;1.00;;;;;;5054355;28;20424;-82
2022/04/27 01:31:28;;;;;;;4.73;2.87;;;7.80;14.40;;;;;;5072450;28;20422;-82
2022/04/27 01:33:55;;;;;;;4.80;3.30;;;7.80;17.10;;;;;;5054374;28;20415;-82
2022/04/27 01:36:20;;;;;;;6.53;3.77;;;7.80;29.00;;;;;;5054424;28;20206;-82
2022/04/27 01:38:46;;;;;;;4.87;2.70;;;7.70;52.70;;;;;;5072276;28;20677;-82
2022/04/27 01:41:12;;;;;;;5.30;2.80;;;7.70;44.70;;;;;;5071887;28;20269;-82
2022/04/27 01:43:38;;;;;;;5.80;2.77;;;7.60;29.20;;;;;;5072311;28;20176;-82
2022/04/27 01:46:07;;;;;;;5.23;2.90;;;7.60;40.80;;;;;;5072247;28;20428;-83
2022/04/27 01:48:36;;;;;;;6.90;3.20;;;7.60;75.20;;;;;;5054166;28;20408;-83
2022/04/27 01:51:01;;;;;;;7.80;3.93;;;7.50;91.90;;;;;;5054272;28;20427;-83
2022/04/27 01:56:11;;;;;;;7.00;3.73;;;7.40;99.90;;;;;;5073891;28;20231;-83
2022/04/27 01:58:36;;;;;;;4.13;2.87;;;7.30;99.90;;;;;;5075849;28;20413;-83
2022/04/27 02:01:02;;;;;;;7.27;3.60;;;7.30;99.90;;;;;;5075769;28;20176;-83
2022/04/27 02:03:27;;;;;;;4.60;3.30;;;7.30;99.90;;;;;;5075613;28;20165;-83
2022/04/27 02:05:53;;;;;;;4.07;3.00;;;7.20;99.90;;;;;;5057799;28;20224;-83
2022/04/27 02:08:19;;;;;;;6.57;4.70;;;7.10;99.90;;;;;;5075561;28;20170;-82
2022/04/27 02:10:45;;;;;;;4.90;3.00;;;7.10;99.90;;;;;;5075456;28;20637;-82
2022/04/27 02:13:11;;;;;;;5.70;3.20;;;7.10;99.90;;;;;;5075385;28;20483;-82
2022/04/27 02:15:38;;;;;;;7.33;3.27;;;7.10;99.90;;;;;;5057180;28;20966;-82
2022/04/27 02:18:03;;;;;;;8.27;3.20;;;7.00;99.90;;;;;;5057490;28;20468;-82
2022/04/27 02:20:32;;;;;;;5.97;3.30;;;7.00;99.90;;;;;;5075378;28;20423;-82
2022/04/27 02:22:57;;;;;;;7.33;3.57;;;6.90;99.90;;;;;;5075296;28;20169;-81
2022/04/27 02:25:23;;;;;;;3.73;2.73;;;6.90;99.90;;;;;;5075287;28;20419;-81
2022/04/27 02:27:50;;;;;;;7.77;3.50;;;6.90;99.90;;;;;;5074923;28;20182;-81
2022/04/27 02:30:17;;;;;;;8.00;3.80;;;6.90;99.90;;;;;;5075192;28;20250;-81
2022/04/27 02:32:45;;;;;;;6.60;3.23;;;6.90;99.90;;;;;;5075254;28;20407;-81
2022/04/27 02:35:11;;;;;;;8.33;2.40;;;6.80;99.90;;;;;;5075005;28;20930;-82
2022/04/27 02:37:36;;;;;;;6.43;3.57;;;6.70;99.90;;;;;;5075137;28;20502;-82
2022/04/27 02:40:03;;;;;;;9.60;4.60;;;6.70;99.90;;;;;;5075078;28;20533;-82
2022/04/27 02:42:29;;;;;;;6.27;3.30;;;6.70;99.90;;;;;;5074684;28;20165;-82
2022/04/27 02:44:56;;;;;;;8.63;3.53;;;6.70;99.90;;;;;;5074918;28;20465;-82
2022/04/27 02:47:22;;;;;;;6.80;4.37;;;6.60;99.90;;;;;;5074826;28;20428;-82
2022/04/27 02:52:35;;;;;;;8.20;3.73;;;6.60;99.90;;;;;;5074831;28;20183;-82
2022/04/27 02:55:01;;;;;;;7.90;4.70;;;6.60;99.90;;;;;;5074653;28;20538;-82
2022/04/27 02:57:27;;;;;;;8.10;3.60;;;6.60;99.90;;;;;;5056492;28;20181;-82
2022/04/27 02:59:52;;;;;;;7.30;3.23;;;6.60;99.90;;;;;;5074709;28;20419;-82
2022/04/27 03:02:18;;;;;;;7.80;5.03;;;6.50;99.90;;;;;;5074658;28;20223;-82
2022/04/27 03:04:44;;;;;;;6.30;3.80;;;6.50;99.90;;;;;;5074524;28;20609;-82
2022/04/27 03:07:09;;;;;;;5.57;2.77;;;6.40;99.90;;;;;;5073357;28;20188;-82
2022/04/27 03:09:35;;;;;;;5.07;3.30;;;6.50;99.90;;;;;;5074463;28;20206;-82
2022/04/27 03:12:01;;;;;;;6.00;3.37;;;6.40;99.90;;;;;;5074000;28;20170;-82
2022/04/27 03:14:30;;;;;;;5.53;3.50;;;6.40;99.90;;;;;;5056284;28;20177;-82
2022/04/27 03:16:57;;;;;;;11.53;5.17;;;6.30;99.90;;;;;;5074078;28;20455;-82
2022/04/27 03:19:23;;;;;;;7.10;3.90;;;6.30;99.90;;;;;;5074153;28;20454;-82
2022/04/27 03:21:49;;;;;;;8.30;3.80;;;6.20;99.90;;;;;;5074282;28;20928;-82
2022/04/27 03:24:14;;;;;;;8.10;2.63;;;6.20;99.90;;;;;;5056272;28;20538;-83
2022/04/27 03:26:40;;;;;;;8.20;4.10;;;6.20;99.90;;;;;;5055799;28;20230;-83
2022/04/27 03:29:08;;;;;;;6.90;3.93;;;6.20;99.90;;;;;;5074123;28;20172;-83
2022/04/27 03:31:34;;;;;;;12.37;4.47;;;6.10;99.90;;;;;;5073972;28;20407;-83
2022/04/27 03:34:00;;;;;;;8.60;4.27;;;6.10;99.90;;;;;;5073871;28;20494;-83
2022/04/27 03:36:25;;;;;;;4.43;3.53;;;6.10;99.90;;;;;;5073845;28;20220;-83
2022/04/27 03:38:51;;;;;;;10.07;4.47;;;6.10;99.90;;;;;;5073912;28;20188;-82
2022/04/27 03:41:20;;;;;;;6.77;3.30;;;6.10;99.90;;;;;;5073362;28;20641;-82
2022/04/27 03:43:46;;;;;;;8.70;4.73;;;6.10;99.90;;;;;;5055905;28;20431;-83
2022/04/27 03:46:11;;;;;;;6.40;3.47;;;6.10;99.90;;;;;;5073713;28;20419;-83
2022/04/27 03:48:37;;;;;;;5.97;3.30;;;6.00;99.90;;;;;;5073663;28;20991;-83
2022/04/27 03:51:04;;;;;;;5.57;3.53;;;5.90;99.90;;;;;;5073578;28;20169;-82
2022/04/27 03:53:29;;;;;;;11.40;4.27;;;6.00;99.90;;;;;;5073466;28;20180;-82
2022/04/27 03:55:55;;;;;;;6.57;3.63;;;6.00;99.90;;;;;;5073086;28;20466;-82
2022/04/27 03:58:20;;;;;;;5.50;3.40;;;6.00;99.90;;;;;;5073243;28;20226;-82
2022/04/27 04:00:46;;;;;;;5.07;2.80;;;6.00;99.90;;;;;;5055551;28;20200;-82
2022/04/27 04:03:11;;;;;;;5.67;3.87;;;6.10;99.90;;;;;;5055508;28;20169;-83
2022/04/27 04:05:37;;;;;;;9.80;4.17;;;6.10;99.90;;;;;;5073398;28;20602;-82
2022/04/27 04:08:03;;;;;;;5.30;3.37;;;6.00;99.90;;;;;;5073333;28;20203;-82
2022/04/27 04:10:29;;;;;;;8.80;4.50;;;6.00;99.90;;;;;;5072914;28;20169;-82
2022/04/27 04:12:54;;;;;;;6.30;2.83;;;6.10;99.90;;;;;;5073263;28;20407;-82
2022/04/27 04:15:20;;;;;;;7.33;2.97;;;6.10;99.90;;;;;;5055239;28;20208;-81
2022/04/27 04:17:45;;;;;;;6.10;2.90;;;6.20;99.90;;;;;;5072946;28;20216;-81
2022/04/27 04:20:17;;;;;;;4.87;2.73;;;6.20;99.90;;;;;;5072974;28;20173;-81
2022/04/27 04:22:43;;;;;;;9.40;3.03;;;6.20;99.90;;;;;;5073092;28;20165;-81
2022/04/27 04:30:39;;;;;;;5.80;2.70;;;6.40;99.90;;;;;;5073273;28;20499;-81
2022/04/27 04:33:04;;;;;;;5.23;3.50;;;6.40;99.90;;;;;;5072974;28;20849;-81
2022/04/27 04:35:30;;;;;;;6.60;2.77;;;6.40;99.90;;;;;;5072965;28;20204;-81
2022/04/27 04:37:56;;;;;;;5.07;3.30;;;6.40;99.90;;;;;;5072962;28;20173;-81
2022/04/27 04:40:21;;;;;;;6.83;3.43;;;6.30;99.90;;;;;;5054685;28;20169;-81
2022/04/27 04:42:47;;;;;;;5.33;2.40;;;6.30;99.90;;;;;;5072825;28;20173;-82
2022/04/27 04:45:13;;;;;;;5.50;2.93;;;6.40;99.90;;;;;;5072835;28;20180;-81
2022/04/27 04:47:39;;;;;;;6.13;3.17;;;6.40;99.90;;;;;;5072779;28;20246;-81
2022/04/27 04:50:05;;;;;;;5.73;3.20;;;6.40;99.90;;;;;;5072828;28;20204;-81
2022/04/27 04:52:30;;;;;;;5.83;3.57;;;6.40;99.90;;;;;;5054401;28;20414;-82
2022/04/27 04:54:56;;;;;;;10.83;4.97;;;6.50;99.90;;;;;;5054311;28;20534;-83
2022/04/27 04:57:21;;;;;;;4.50;2.83;;;6.50;99.90;;;;;;5072101;28;20234;-83
2022/04/27 04:59:47;;;;;;;7.03;2.83;;;6.50;99.90;;;;;;5072264;28;20629;-83
2022/04/27 05:02:12;;;;;;;5.80;3.67;;;6.50;99.90;;;;;;5054633;28;20629;-84
2022/04/27 05:04:38;;;;;;;4.93;2.57;;;6.60;99.90;;;;;;5072629;28;20264;-83
2022/04/27 05:07:04;;;;;;;5.93;3.03;;;6.60;99.90;;;;;;5072183;28;20180;-83
2022/04/27 05:09:29;;;;;;;6.70;2.97;;;6.60;99.90;;;;;;5074529;28;20258;-81
2022/04/27 05:11:55;;;;;;;6.50;2.90;;;6.70;99.90;;;;;;5053696;28;20452;-81
2022/04/27 05:14:20;;;;;;;4.73;2.40;;;6.60;99.90;;;;;;5070803;28;20165;-81
2022/04/27 05:16:46;;;;;;;7.90;4.00;;;6.80;99.90;;;;;;5070766;28;20595;-81
2022/04/27 05:19:11;;;;;;;9.17;4.50;;;6.80;99.90;;;;;;5072567;28;20219;-82
2022/04/27 05:21:37;;;;;;;6.30;3.33;;;7.10;99.90;;;;;;5072532;28;20686;-82
2022/04/27 05:24:03;;;;;;;12.00;4.53;;;7.40;99.90;;;;;;5072400;28;20176;-82
2022/04/27 05:26:29;;;;;;;4.43;2.97;;;7.80;49.90;;;;;;5054051;28;20228;-83
2022/04/27 05:32:00;;;;;;;7.77;3.57;;;8.30;1.00;;;;;;5075299;28;20687;-82
2022/04/27 05:34:29;;;;;;;7.67;3.70;;;8.80;1.00;;;;;;5076422;28;20420;-83
2022/04/27 05:36:55;;;;;;;6.03;4.43;;;9.10;99.90;;;;;;5075229;28;20476;-83
2022/04/27 05:39:21;;;;;;;9.60;3.23;;;9.40;99.90;;;;;;5057846;28;20421;-83
2022/04/27 05:41:51;;;;;;;7.73;3.40;;;9.50;1.00;;;;;;5074757;28;20419;-83
2022/04/27 05:44:24;;;;;;;9.30;3.60;;;9.70;99.90;;;;;;5076158;28;20169;-84
2022/04/27 05:46:54;;;;;;;4.17;2.07;;;10.00;1.00;;;;;;5075770;28;20800;-83
2022/04/27 05:49:20;;;;;;;7.20;2.60;;;9.80;1.00;;;;;;5075439;28;20740;-84
2022/04/27 05:51:46;;;;;;;5.10;3.03;;;9.60;99.90;;;;;;5076587;28;20413;-83
2022/04/27 05:54:16;;;;;;;7.20;2.67;;;10.10;1.00;;;;;;5058387;28;20446;-82
2022/04/27 05:56:43;;;;;;;7.80;3.00;;;10.90;99.90;;;;;;5075966;28;20478;-83
2022/04/27 05:59:09;;;;;;;8.30;2.93;;;11.20;1.00;;;;;;5076236;28;20416;-83
2022/04/27 06:01:35;;;;;;;7.30;1.97;;;11.90;99.90;;;;;;5076465;28;20414;-83
2022/04/27 06:04:03;;;;;;;4.83;2.13;;;12.50;99.90;;;;;;5076233;28;20413;-82
2022/04/27 06:06:29;;;;;;;5.87;2.33;;;12.90;99.90;;;;;;5057388;28;20471;-83
2022/04/27 06:08:55;;;;;;;5.03;1.80;;;13.40;99.90;;;;;;5075458;28;20417;-83
2022/04/27 06:11:20;;;;;;;7.93;1.43;;;13.50;99.90;;;;;;5056036;28;20641;-80
2022/04/27 06:13:47;;;;;;;4.97;3.60;;;14.50;99.90;;;;;;5075600;28;20408;-80
2022/04/27 06:16:13;;;;;;;6.90;2.37;;;12.30;99.90;;;;;;5075229;28;20249;-80
2022/04/27 06:18:40;;;;;;;4.77;2.90;;;11.30;99.90;;;;;;5075485;28;20457;-82
2022/04/27 06:21:07;;;;;;;3.80;1.70;;;10.90;99.90;;;;;;5075407;28;20461;-82
2022/04/27 06:23:33;;;;;;;3.50;2.03;;;10.70;1.00;;;;;;5075330;28;20415;-82
2022/04/27 06:25:58;;;;;;;5.70;1.83;;;10.50;26.40;;;;;;5057003;28;20929;-82
2022/04/27 06:28:24;;;;;;;10.97;3.10;;;10.70;99.90;;;;;;5075090;28;20438;-82
2022/04/27 06:30:49;;;;;;;4.10;1.67;;;11.00;1.00;;;;;;5075180;28;20168;-82
2022/04/27 06:33:15;;;;;;;7.47;2.70;;;10.70;99.90;;;;;;5075023;28;20677;-83
2022/04/27 06:35:41;;;;;;;7.47;2.33;;;10.50;99.90;;;;;;5075112;28;20215;-83
2022/04/27 06:38:07;;;;;;;4.40;1.73;;;10.70;99.90;;;;;;5074999;28;20163;-82
2022/04/27 06:40:33;;;;;;;2.67;0.80;;;10.50;1.00;;;;;;5074779;28;20171;-82
2022/04/27 06:42:59;;;;;;;3.50;1.33;;;10.50;1.00;;;;;;5074881;28;20412;-82
2022/04/27 06:45:27;;;;;;;3.03;1.83;;;10.60;99.90;;;;;;5074745;28;20462;-82
2022/04/27 06:47:54;;;;;;;6.47;1.97;;;10.90;99.90;;;;;;5074776;28;20627;-83
2022/04/27 06:50:19;;;;;;;3.00;1.50;;;11.30;99.90;;;;;;5074633;28;20454;-82
2022/04/27 06:52:48;;;;;;;6.77;2.17;;;11.30;99.90;;;;;;5074716;28;20810;-82
2022/04/27 06:55:16;;;;;;;8.03;2.10;;;11.70;99.90;;;;;;5072542;28;20204;-82
2022/04/27 06:57:42;;;;;;;9.13;2.10;;;11.90;1.00;;;;;;5074608;28;20426;-80
2022/04/27 07:00:12;;;;;;;9.23;2.07;;;11.90;1.00;;;;;;5074118;28;21073;-82
2022/04/27 07:02:41;;;;;;;5.80;1.30;;;11.80;1.00;;;;;;5074604;28;20303;-80
2022/04/27 07:05:09;;;;;;;4.53;1.63;;;12.00;1.00;;;;;;5074561;28;20413;-81
2022/04/27 07:07:35;;;;;;;4.00;1.50;;;13.20;99.90;;;;;;5074424;28;20519;-80
2022/04/27 07:10:01;;;;;;;6.67;2.13;;;14.80;99.90;;;;;;5074039;28;20867;-82
2022/04/27 07:12:26;;;;;;;11.53;2.50;;;14.00;99.90;;;;;;5074354;28;20173;-81
2022/04/27 07:14:52;;;;;;;3.23;1.40;;;14.10;99.90;;;;;;5074235;28;20212;-81
2022/04/27 07:17:18;;;;;;;6.90;2.57;;;13.50;99.90;;;;;;5074161;28;20225;-79
2022/04/27 07:19:44;;;;;;;2.93;2.27;;;13.10;99.90;;;;;;5074188;28;20214;-79
2022/04/27 07:22:10;;;;;;;5.53;1.90;;;13.00;99.90;;;;;;5074177;28;20478;-83
2022/04/27 07:24:37;;;;;;;3.43;1.60;;;12.80;99.90;;;;;;5074174;28;20244;-82
2022/04/27 07:27:03;;;;;;;4.53;1.83;;;12.70;99.90;;;;;;5073788;28;20429;-82
2022/04/27 07:29:29;;;;;;;3.83;1.73;;;12.70;99.90;;;;;;5073950;28;20920;-83
2022/04/27 07:31:54;;;;;;;5.47;1.63;;;12.70;99.90;;;;;;5055605;28;20435;-83
2022/04/27 07:34:20;;;;;;;4.77;1.80;;;12.80;99.90;;;;;;5074217;28;20550;-83
2022/04/27 07:36:45;;;;;;;3.27;1.70;;;12.80;99.90;;;;;;5073848;28;20654;-83
2022/04/27 07:39:11;;;;;;;3.60;2.20;;;12.80;99.90;;;;;;5074018;28;20165;-81
2022/04/27 07:41:36;;;;;;;3.70;1.43;;;13.40;99.90;;;;;;5073591;28;20176;-82
2022/04/27 07:44:02;;;;;;;4.10;1.23;;;13.40;99.90;;;;;;5073711;28;20185;-83
2022/04/27 07:46:28;;;;;;;6.73;1.80;;;13.30;99.90;;;;;;5055712;28;20170;-82
2022/04/27 07:48:54;;;;;;;5.00;2.50;;;13.30;99.90;;;;;;5073750;28;20416;-84
2022/04/27 07:51:20;;;;;;;7.07;2.17;;;13.60;99.90;;;;;;5073665;28;20363;-82
2022/04/27 07:53:46;;;;;;;5.00;1.97;;;13.30;99.90;;;;;;5073372;28;20534;-86
2022/04/27 07:56:11;;;;;;;2.03;1.03;;;13.40;99.90;;;;;;5073096;28;20223;-79
2022/04/27 07:58:37;;;;;;;3.83;2.10;;;13.40;99.90;;;;;;5073813;28;20174;-80
2022/04/27 08:01:02;;;;;;;7.60;1.60;;;12.90;99.90;;;;;;5073599;28;20177;-81
2022/04/27 08:03:28;;;;;;;6.00;2.53;;;13.30;99.90;;;;;;5055218;28;20627;-83
2022/04/27 08:05:54;;;;;;;6.60;1.50;;;13.90;99.90;;;;;;5067987;28;20186;-86
2022/04/27 08:08:20;;;;;;;5.30;1.80;;;14.70;99.90;;;;;;5072271;28;20175;-84
2022/04/27 08:10:45;;;;;;;3.70;1.70;;;15.50;99.90;;;;;;5052243;28;20188;-85
2022/04/27 08:13:11;;;;;;;6.97;2.47;;;15.50;99.90;;;;;;5072160;28;20627;-82
2022/04/27 08:15:37;;;;;;;5.53;1.73;;;16.10;97.20;;;;;;5071817;28;20265;-81
2022/04/27 08:18:06;;;;;;;5.97;2.40;;;16.90;37.90;;;;;;5072131;28;20497;-83
2022/04/27 08:23:20;;;;;;;3.17;1.70;;;18.50;1.00;;;;;;5072365;28;20416;-83
2022/04/27 08:25:47;;;;;;;5.17;1.80;;;17.20;1.00;;;;;;5071770;28;20418;-86
2022/04/27 08:28:13;;;;;;;3.47;1.50;;;19.50;1.00;;;;;;5072134;28;20479;-89
2022/04/27 08:30:40;;;;;;;4.17;1.63;;;20.20;1.00;;;;;;5072530;28;20902;-83
2022/04/27 08:33:07;;;;;;;4.00;1.80;;;18.70;1.00;;;;;;5068514;28;20938;-88
2022/04/27 08:35:33;;;;;;;5.37;2.20;;;20.20;1.00;;;;;;5073417;28;20455;-89
2022/04/27 08:38:00;;;;;;;5.57;1.93;;;20.00;1.00;;;;;;5072963;28;20506;-88
2022/04/27 08:40:26;;;;;;;4.93;1.90;;;20.30;1.00;;;;;;5072133;28;20407;-82
2022/04/27 08:42:53;;;;;;;3.97;1.80;;;21.50;1.00;;;;;;5072304;28;20433;-81
2022/04/27 08:45:19;;;;;;;5.20;2.40;;;21.40;1.00;;;;;;5072429;28;20205;-84
2022/04/27 08:47:50;;;;;;;5.20;2.20;;;21.60;1.00;;;;;;5070548;28;20418;-84
2022/04/27 08:50:21;;;;;;;3.30;2.15;;;21.10;1.00;;;;;;5071468;28;20767;-84
2022/04/27 08:52:48;;;;;;;3.73;2.30;;;21.30;1.00;;;;;;5072966;28;20169;-84
2022/04/27 08:55:15;;;;;;;5.73;2.00;;;21.50;1.00;;;;;;5054173;28;20611;-82
2022/04/27 08:57:41;;;;;;;4.77;2.07;;;21.70;1.00;;;;;;5054353;28;20786;-82
2022/04/27 09:00:09;;;;;;;6.03;2.77;;;21.60;1.00;;;;;;5054538;28;21008;-81
2022/04/27 09:02:35;;;;;;;3.67;2.33;;;21.00;1.00;;;;;;5072460;28;20465;-83
2022/04/27 09:05:17;;;;;;;5.27;2.00;;;21.90;1.00;;;;;;5074305;28;20442;-80
2022/04/27 09:07:51;;;;;;;6.40;2.20;;;22.20;1.00;;;;;;5076785;28;20185;-81
2022/04/27 09:10:24;;;;;;;6.93;2.27;;;22.60;1.00;;;;;;5076239;28;20788;-79
2022/04/27 09:12:51;;;;;;;4.13;2.53;;;21.80;1.00;;;;;;5076687;28;20423;-80
2022/04/27 09:15:19;;;;;;;9.30;2.53;;;22.10;1.00;;;;;;5076087;28;20533;-81
2022/04/27 09:20:49;;;;;;;2.87;1.87;;;22.70;1.00;;;;;;5075853;28;20418;-83
2022/04/27 09:23:37;;;;;;;5.20;2.50;;;21.70;1.00;;;;;;5076346;28;20887;-84
2022/04/27 09:26:16;;;;;;;3.20;2.67;;;21.60;1.00;;;;;;5076106;28;20441;-83
2022/04/27 09:28:47;;;;;;;4.57;2.47;;;21.90;1.00;;;;;;5076492;28;20760;-82
2022/04/27 09:31:28;;;;;;;4.40;2.63;;;22.40;1.00;;;;;;5076495;28;20419;-83
2022/04/27 09:34:02;;;;;;;3.83;2.63;;;22.90;1.00;;;;;;5076344;28;20411;-82
2022/04/27 09:36:28;;;;;;;7.83;2.60;;;22.60;1.00;;;;;;5069606;28;20483;-92
2022/04/27 09:38:55;;;;;;;4.30;2.77;;;22.90;1.00;;;;;;5055574;28;20431;-82
2022/04/27 09:41:42;;;;;;;7.57;2.67;;;23.20;1.00;;;;;;5054964;28;20455;-83
2022/04/27 09:44:30;;;;;;;3.60;2.53;;;23.40;1.00;;;;;;5055378;28;20404;-92
2022/04/27 09:46:57;;;;;;;5.73;2.43;;;22.90;1.00;;;;;;5042932;28;20420;-83
2022/04/27 09:49:23;;;;;;;4.80;2.83;;;22.30;1.00;;;;;;5068792;28;20435;-91
2022/04/27 09:51:53;;;;;;;7.70;2.80;;;22.60;1.00;;;;;;5084587;28;20423;-90
2022/04/27 09:54:28;;;;;;;6.73;3.40;;;22.70;1.00;;;;;;5076007;28;20177;-84
2022/04/27 09:56:58;;;;;;;5.30;2.57;;;22.70;1.00;;;;;;5076261;28;20835;-92
2022/04/27 09:59:27;;;;;;;6.33;3.90;;;23.20;1.00;;;;;;5075486;28;20489;-85
2022/04/27 10:02:08;;;;;;;4.00;2.67;;;23.30;1.00;;;;;;5084983;28;20419;-93
2022/04/27 10:04:35;;;;;;;6.10;2.80;;;23.50;1.00;;;;;;5087581;28;20407;-83
2022/04/27 10:07:03;;;;;;;3.43;2.47;;;23.90;1.00;;;;;;5080734;28;20427;-86
2022/04/27 10:09:29;;;;;;;3.80;3.17;;;23.80;1.00;;;;;;5079664;28;20426;-86
2022/04/27 10:11:57;;;;;;;6.27;3.70;;;23.60;1.00;;;;;;5086414;28;20860;-82
2022/04/27 10:14:22;;;;;;;3.43;2.63;;;23.10;1.00;;;;;;5081216;28;20518;-82
2022/04/27 10:16:49;;;;;;;5.23;2.70;;;23.30;1.00;;;;;;5058930;28;21052;-82
2022/04/27 10:19:17;;;;;;;3.80;2.43;;;23.30;1.00;;;;;;5078069;28;20169;-82
2022/04/27 10:21:56;;;;;;;3.73;2.27;;;23.50;1.00;;;;;;5076551;28;20427;-81
2022/04/27 10:24:46;;;;;;;7.07;3.10;;;23.20;1.00;;;;;;5059954;28;20786;-81
2022/04/27 10:27:23;;;;;;;4.67;2.47;;;23.70;1.00;;;;;;5081061;28;20415;-80
2022/04/27 10:29:51;;;;;;;3.50;2.10;;;22.80;1.00;;;;;;5061771;28;20415;-81
2022/04/27 10:33:05;;;;;;;4.27;2.33;;;21.90;1.00;;;;;;5080361;28;20412;-84
2022/04/27 10:35:31;;;;;;;3.17;2.20;;;23.00;1.00;;;;;;5082522;28;20504;-85
2022/04/27 10:37:58;;;;;;;4.30;2.40;;;23.70;1.00;;;;;;5087822;28;20415;-81
2022/04/27 10:40:43;;;;;;;4.30;3.00;;;23.70;1.00;;;;;;5080807;28;20952;-83
2022/04/27 10:43:15;;;;;;;7.77;2.43;;;24.20;1.00;;;;;;5085799;28;20945;-80
2022/04/27 10:45:45;;;;;;;2.73;2.53;;;24.00;1.00;;;;;;5082616;28;20419;-83
2022/04/27 10:48:53;;;;;;;6.30;3.60;;;23.00;1.00;;;;;;5081948;28;20416;-83
2022/04/27 10:51:20;;;;;;;3.17;2.87;;;21.70;1.00;;;;;;5081821;28;20454;-80
2022/04/27 10:53:48;;;;;;;5.13;3.27;;;19.90;1.00;;;;;;5079277;28;20403;-80
2022/04/27 10:56:24;;;;;;;4.47;3.70;;;21.70;1.00;;;;;;5076268;28;20595;-82
2022/04/27 10:58:50;;;;;;;4.00;2.70;;;21.10;1.00;;;;;;5076366;28;20423;-83
2022/04/27 11:01:20;;;;;;;4.20;3.00;;;21.40;1.00;;;;;;5077061;28;20469;-86
2022/04/27 11:04:05;;;;;;;9.20;3.00;;;21.20;1.00;;;;;;5078057;28;20427;-93
2022/04/27 11:06:53;;;;;;;7.70;2.90;;;20.30;1.00;;;;;;5088893;28;20418;-81
2022/04/27 11:09:49;;;;;;;4.03;2.20;;;19.60;1.00;;;;;;5088392;28;20454;-88
2022/04/27 11:12:15;;;;;;;3.97;2.50;;;20.90;1.00;;;;;;5160483;22;20484;-91
2022/04/27 11:14:41;;;;;;;4.63;2.57;;;22.50;1.00;;;;;;5058634;28;20444;-82
2022/04/27 11:17:06;;;;;;;3.00;2.40;;;23.30;1.00;;;;;;5054291;28;20669;-81
2022/04/27 11:19:36;;;;;;;3.43;2.70;;;23.30;1.00;;;;;;5054173;28;20426;-81
2022/04/27 11:22:15;;;;;;;4.70;2.50;;;23.60;1.00;;;;;;5054396;28;20602;-86
2022/04/27 11:24:44;;;;;;;2.87;1.93;;;23.30;1.00;;;;;;5053855;28;20495;-82
2022/04/27 11:27:10;;;;;;;4.40;2.17;;;22.30;1.00;;;;;;5053952;28;20450;-81
2022/04/27 11:29:37;;;;;;;2.77;2.10;;;22.40;1.00;;;;;;5053384;28;20772;-82
2022/04/27 11:32:06;;;;;;;5.20;2.50;;;22.20;1.00;;;;;;5054131;28;20424;-83
2022/04/27 11:34:33;;;;;;;6.37;2.17;;;23.10;1.00;;;;;;5054081;28;20408;-82
2022/04/27 11:37:16;;;;;;;4.00;2.27;;;23.10;1.00;;;;;;5053856;28;20479;-82
2022/04/27 11:39:43;;;;;;;3.03;2.40;;;23.70;1.00;;;;;;5053645;28;20408;-81
2022/04/27 11:42:12;;;;;;;3.10;2.07;;;22.00;1.00;;;;;;5053960;28;20423;-84
2022/04/27 11:44:39;;;;;;;3.97;2.53;;;21.10;1.00;;;;;;5053772;28;20455;-81
2022/04/27 11:47:23;;;;;;;4.57;2.40;;;21.80;1.00;;;;;;5053853;28;20419;-83
2022/04/27 11:49:59;;;;;;;3.47;1.90;;;22.40;1.00;;;;;;5053873;28;20466;-81
2022/04/27 11:52:26;;;;;;;5.33;2.40;;;22.80;1.00;;;;;;5053732;28;20786;-83
2022/04/27 11:54:52;;;;;;;2.70;2.03;;;23.10;1.00;;;;;;5053272;28;20523;-87
2022/04/27 11:57:22;;;;;;;4.47;2.10;;;22.90;1.00;;;;;;5053590;28;20485;-84
2022/04/27 11:59:48;;;;;;;5.60;2.23;;;23.30;1.00;;;;;;5053529;28;20416;-83
2022/04/27 12:02:22;;;;;;;4.10;2.00;;;22.90;1.00;;;;;;5053602;28;20436;-88
2022/04/27 12:04:49;;;;;;;3.07;2.30;;;22.00;1.00;;;;;;5053842;28;20404;-87
2022/04/27 12:07:16;;;;;;;3.37;2.80;;;22.30;1.00;;;;;;5054747;28;20428;-83
2022/04/27 12:09:56;;;;;;;3.30;2.00;;;22.60;1.00;;;;;;5054940;28;20911;-88
2022/04/27 12:12:22;;;;;;;5.10;2.43;;;22.90;1.00;;;;;;5055391;28;20474;-82
2022/04/27 12:14:48;;;;;;;3.17;2.00;;;22.60;1.00;;;;;;5055123;28;20404;-83
2022/04/27 12:17:44;;;;;;;4.60;3.10;;;22.50;1.00;;;;;;5058910;28;20561;-85
2022/04/27 12:20:31;;;;;;;6.50;2.63;;;23.40;1.00;;;;;;5068304;28;20435;-85
2022/04/27 12:23:02;;;;;;;3.10;1.63;;;22.60;1.00;;;;;;5061375;28;20397;-83
2022/04/27 12:25:55;;;;;;;5.90;3.60;;;23.10;1.00;;;;;;5071810;28;20438;-84
2022/04/27 12:28:49;;;;;;;5.33;3.30;;;23.00;1.00;;;;;;5060914;28;20444;-83
2022/04/27 12:31:21;;;;;;;7.23;4.20;;;22.60;1.00;;;;;;5057030;28;20476;-85
2022/04/27 12:33:51;;;;;;;3.87;2.60;;;22.60;1.00;;;;;;5068085;28;20480;-84
2022/04/27 12:39:25;;;;;;;4.43;2.20;;;23.10;1.00;;;;;;5070870;28;21087;-83
2022/04/27 12:42:09;;;;;;;4.20;2.10;;;22.00;1.00;;;;;;5067379;28;20436;-87
2022/04/27 12:44:40;;;;;;;3.53;2.77;;;22.70;1.00;;;;;;5065140;28;20494;-83
2022/04/27 12:47:16;;;;;;;3.50;3.17;;;22.40;1.00;;;;;;5059990;28;20417;-83
2022/04/27 12:49:50;;;;;;;3.80;1.97;;;22.10;1.00;;;;;;5060539;28;20411;-82
2022/04/27 12:52:23;;;;;;;3.00;2.40;;;22.50;1.00;;;;;;5063287;28;20936;-85
2022/04/27 12:54:52;;;;;;;4.50;2.50;;;22.20;1.00;;;;;;5044936;28;20409;-87
2022/04/27 12:57:18;;;;;;;3.20;2.00;;;21.70;1.00;;;;;;5046278;28;20417;-85
2022/04/27 12:59:58;;;;;;;3.87;3.00;;;21.90;1.00;;;;;;5060293;28;20405;-81
2022/04/27 13:02:25;;;;;;;3.70;2.70;;;22.80;1.00;;;;;;5047676;28;20424;-89
2022/04/27 13:04:52;;;;;;;3.90;2.83;;;23.10;1.00;;;;;;5032199;28;20417;-89
2022/04/27 13:07:18;;;;;;;6.17;3.50;;;22.80;1.00;;;;;;5032249;28;20456;-87
2022/04/27 13:12:32;;;;;;;6.27;2.47;;;21.00;1.00;;;;;;5052890;28;20471;-88
2022/04/27 13:14:58;;;;;;;3.60;2.60;;;21.40;1.00;;;;;;5054567;28;20927;-83
2022/04/27 13:17:24;;;;;;;5.80;2.43;;;21.40;1.00;;;;;;5055302;28;20416;-88
2022/04/27 13:19:49;;;;;;;6.10;2.80;;;21.20;1.00;;;;;;5053157;28;20408;-91
2022/04/27 13:22:15;;;;;;;3.53;2.20;;;21.80;1.00;;;;;;5051953;28;20257;-91
2022/04/27 13:24:43;;;;;;;3.03;2.57;;;21.60;1.00;;;;;;5051736;28;20253;-89
2022/04/27 13:27:09;;;;;;;5.13;3.30;;;21.50;1.00;;;;;;5053172;28;20470;-89